sensor_id;sensor_type;location;lat;lon;timestamp;pressure;altitude;pressure_sealevel;temperature;humidity
77159;BME280;66129;45.890;13.714;2024-01-07T00:01:34;99183.81;;;10.71;71.47
77159;BME280;66129;45.890;13.714;2024-01-07T00:04:00;99190.69;;;10.67;73.11
77159;BME280;66129;45.890;13.714;2024-01-07T00:06:25;99200.94;;;10.64;72.27
77159;BME280;66129;45.890;13.714;2024-01-07T00:08:51;99187.31;;;10.59;73.40
77159;BME280;66129;45.890;13.714;2024-01-07T00:11:16;99202.63;;;10.68;72.25
77159;BME280;66129;45.890;13.714;2024-01-07T00:13:42;99201.81;;;10.60;74.58
77159;BME280;66129;45.890;13.714;2024-01-07T00:16:07;99199.34;;;10.48;77.30
77159;BME280;66129;45.890;13.714;2024-01-07T00:18:33;99207.91;;;10.40;79.10
77159;BME280;66129;45.890;13.714;2024-01-07T00:20:58;99211.38;;;10.25;79.47
77159;BME280;66129;45.890;13.714;2024-01-07T00:23:24;99215.63;;;10.26;79.66
77159;BME280;66129;45.890;13.714;2024-01-07T00:25:49;99219.09;;;10.18;80.88
77159;BME280;66129;45.890;13.714;2024-01-07T00:28:15;99211.44;;;10.16;81.54
77159;BME280;66129;45.890;13.714;2024-01-07T00:30:40;99221.69;;;10.13;81.53
77159;BME280;66129;45.890;13.714;2024-01-07T00:33:06;99224.25;;;10.04;83.38
77159;BME280;66129;45.890;13.714;2024-01-07T00:35:32;99233.66;;;10.02;83.77
77159;BME280;66129;45.890;13.714;2024-01-07T00:37:57;99231.09;;;9.99;81.96
77159;BME280;66129;45.890;13.714;2024-01-07T00:40:23;99234.50;;;9.97;82.63
77159;BME280;66129;45.890;13.714;2024-01-07T00:42:49;99236.22;;;9.92;82.43
77159;BME280;66129;45.890;13.714;2024-01-07T00:45:14;99231.94;;;9.92;84.14
77159;BME280;66129;45.890;13.714;2024-01-07T00:47:41;99237.09;;;9.84;86.42
77159;BME280;66129;45.890;13.714;2024-01-07T00:50:06;99249.88;;;9.94;82.92
77159;BME280;66129;45.890;13.714;2024-01-07T00:52:33;99233.69;;;9.82;84.99
77159;BME280;66129;45.890;13.714;2024-01-07T00:54:58;99242.19;;;9.79;86.21
77159;BME280;66129;45.890;13.714;2024-01-07T00:57:24;99249.03;;;9.76;86.90
77159;BME280;66129;45.890;13.714;2024-01-07T00:59:49;99248.19;;;9.74;87.43
77159;BME280;66129;45.890;13.714;2024-01-07T01:02:15;99259.28;;;9.70;88.50
77159;BME280;66129;45.890;13.714;2024-01-07T01:04:41;99256.72;;;9.73;86.12
77159;BME280;66129;45.890;13.714;2024-01-07T01:07:06;99253.31;;;9.69;86.01
77159;BME280;66129;45.890;13.714;2024-01-07T01:09:33;99251.59;;;9.70;86.49
77159;BME280;66129;45.890;13.714;2024-01-07T01:11:59;99263.53;;;9.68;88.18
77159;BME280;66129;45.890;13.714;2024-01-07T01:14:24;99268.69;;;9.69;88.50
77159;BME280;66129;45.890;13.714;2024-01-07T01:16:49;99266.13;;;9.57;90.06
77159;BME280;66129;45.890;13.714;2024-01-07T01:19:16;99281.47;;;9.53;90.56
77159;BME280;66129;45.890;13.714;2024-01-07T01:21:42;99260.16;;;9.39;91.88
77159;BME280;66129;45.890;13.714;2024-01-07T01:24:07;99260.16;;;9.40;91.67
77159;BME280;66129;45.890;13.714;2024-01-07T01:26:33;99267.81;;;9.36;94.14
77159;BME280;66129;45.890;13.714;2024-01-07T01:28:58;99276.38;;;9.42;94.14
77159;BME280;66129;45.890;13.714;2024-01-07T01:31:24;99272.09;;;9.38;95.05
77159;BME280;66129;45.890;13.714;2024-01-07T01:33:49;99260.16;;;9.25;96.18
77159;BME280;66129;45.890;13.714;2024-01-07T01:36:14;99276.34;;;9.26;97.49
77159;BME280;66129;45.890;13.714;2024-01-07T01:38:40;99272.91;;;9.22;97.56
77159;BME280;66129;45.890;13.714;2024-01-07T01:41:05;99256.72;;;9.20;98.11
77159;BME280;66129;45.890;13.714;2024-01-07T01:43:31;99258.44;;;9.12;97.27
77159;BME280;66129;45.890;13.714;2024-01-07T01:45:56;99261.84;;;9.22;98.65
77159;BME280;66129;45.890;13.714;2024-01-07T01:48:22;99255.91;;;9.26;97.72
77159;BME280;66129;45.890;13.714;2024-01-07T01:50:49;99253.31;;;9.21;97.76
77159;BME280;66129;45.890;13.714;2024-01-07T01:53:15;99259.31;;;9.28;97.47
77159;BME280;66129;45.890;13.714;2024-01-07T01:55:44;99246.50;;;9.20;97.43
77159;BME280;66129;45.890;13.714;2024-01-07T01:58:09;99251.63;;;9.25;99.92
77159;BME280;66129;45.890;13.714;2024-01-07T02:00:35;99249.09;;;9.14;100.00
77159;BME280;66129;45.890;13.714;2024-01-07T02:03:01;99255.00;;;9.06;100.00
77159;BME280;66129;45.890;13.714;2024-01-07T02:05:27;99247.34;;;8.97;100.00
77159;BME280;66129;45.890;13.714;2024-01-07T02:07:53;99244.78;;;9.00;100.00
77159;BME280;66129;45.890;13.714;2024-01-07T02:10:20;99239.66;;;8.89;100.00
77159;BME280;66129;45.890;13.714;2024-01-07T02:12:45;99243.91;;;8.80;100.00
77159;BME280;66129;45.890;13.714;2024-01-07T02:15:11;99242.16;;;8.64;100.00
77159;BME280;66129;45.890;13.714;2024-01-07T02:17:36;99238.72;;;8.58;100.00
77159;BME280;66129;45.890;13.714;2024-01-07T02:20:02;99237.00;;;8.48;100.00
77159;BME280;66129;45.890;13.714;2024-01-07T02:22:28;99240.38;;;8.39;100.00
77159;BME280;66129;45.890;13.714;2024-01-07T02:24:53;99238.66;;;8.37;100.00
77159;BME280;66129;45.890;13.714;2024-01-07T02:27:18;99241.22;;;8.32;100.00
77159;BME280;66129;45.890;13.714;2024-01-07T02:29:44;99251.38;;;8.23;100.00
77159;BME280;66129;45.890;13.714;2024-01-07T02:32:09;99254.66;;;8.10;100.00
77159;BME280;66129;45.890;13.714;2024-01-07T02:34:35;99248.72;;;8.11;100.00
77159;BME280;66129;45.890;13.714;2024-01-07T02:37:00;99258.16;;;8.18;100.00
77159;BME280;66129;45.890;13.714;2024-01-07T02:39:26;99253.03;;;8.17;100.00
77159;BME280;66129;45.890;13.714;2024-01-07T02:41:51;99246.19;;;8.14;100.00
77159;BME280;66129;45.890;13.714;2024-01-07T02:44:17;99256.38;;;8.08;100.00
77159;BME280;66129;45.890;13.714;2024-01-07T02:46:42;99243.59;;;8.05;100.00
77159;BME280;66129;45.890;13.714;2024-01-07T02:49:07;99255.47;;;7.97;100.00
77159;BME280;66129;45.890;13.714;2024-01-07T02:51:33;99246.06;;;7.90;100.00
77159;BME280;66129;45.890;13.714;2024-01-07T02:53:58;99227.31;;;7.81;100.00
77159;BME280;66129;45.890;13.714;2024-01-07T02:56:24;99246.84;;;7.83;100.00
77159;BME280;66129;45.890;13.714;2024-01-07T02:58:49;99229.84;;;7.79;100.00
77159;BME280;66129;45.890;13.714;2024-01-07T03:01:15;99234.97;;;7.79;100.00
77159;BME280;66129;45.890;13.714;2024-01-07T03:03:40;99237.47;;;7.75;100.00
77159;BME280;66129;45.890;13.714;2024-01-07T03:06:06;99244.28;;;7.80;100.00
77159;BME280;66129;45.890;13.714;2024-01-07T03:08:31;99239.19;;;7.80;100.00
77159;BME280;66129;45.890;13.714;2024-01-07T03:10:57;99231.50;;;7.71;100.00
77159;BME280;66129;45.890;13.714;2024-01-07T03:13:22;99253.59;;;7.69;100.00
77159;BME280;66129;45.890;13.714;2024-01-07T03:15:48;99237.41;;;7.68;100.00
77159;BME280;66129;45.890;13.714;2024-01-07T03:18:13;99246.81;;;7.71;100.00
77159;BME280;66129;45.890;13.714;2024-01-07T03:20:39;99241.69;;;7.68;100.00
77159;BME280;66129;45.890;13.714;2024-01-07T03:23:04;99248.50;;;7.69;100.00
77159;BME280;66129;45.890;13.714;2024-01-07T03:25:30;99247.56;;;7.62;100.00
77159;BME280;66129;45.890;13.714;2024-01-07T03:27:55;99261.16;;;7.61;100.00
77159;BME280;66129;45.890;13.714;2024-01-07T03:30:21;99247.59;;;7.65;100.00
77159;BME280;66129;45.890;13.714;2024-01-07T03:32:46;99249.28;;;7.61;100.00
77159;BME280;66129;45.890;13.714;2024-01-07T03:35:12;99248.41;;;7.61;100.00
77159;BME280;66129;45.890;13.714;2024-01-07T03:37:37;99252.69;;;7.63;100.00
77159;BME280;66129;45.890;13.714;2024-01-07T03:40:03;99239.88;;;7.56;100.00
77159;BME280;66129;45.890;13.714;2024-01-07T03:42:28;99245.06;;;7.63;100.00
77159;BME280;66129;45.890;13.714;2024-01-07T03:44:54;99243.31;;;7.61;100.00
77159;BME280;66129;45.890;13.714;2024-01-07T03:47:19;99256.06;;;7.59;100.00
77159;BME280;66129;45.890;13.714;2024-01-07T03:49:45;99258.56;;;7.53;100.00
77159;BME280;66129;45.890;13.714;2024-01-07T03:52:10;99260.28;;;7.56;100.00
77159;BME280;66129;45.890;13.714;2024-01-07T03:54:36;99261.97;;;7.57;100.00
77159;BME280;66129;45.890;13.714;2024-01-07T03:57:01;99250.97;;;7.61;100.00
77159;BME280;66129;45.890;13.714;2024-01-07T03:59:26;99262.06;;;7.66;100.00
77159;BME280;66129;45.890;13.714;2024-01-07T04:01:54;99265.44;;;7.62;100.00
77159;BME280;66129;45.890;13.714;2024-01-07T04:04:19;99260.31;;;7.59;100.00
77159;BME280;66129;45.890;13.714;2024-01-07T04:06:45;99252.63;;;7.54;100.00
77159;BME280;66129;45.890;13.714;2024-01-07T04:09:10;99243.25;;;7.52;100.00
77159;BME280;66129;45.890;13.714;2024-01-07T04:11:42;99250.94;;;7.58;100.00
77159;BME280;66129;45.890;13.714;2024-01-07T04:14:08;99250.94;;;7.58;100.00
77159;BME280;66129;45.890;13.714;2024-01-07T04:16:34;99240.69;;;7.52;100.00
77159;BME280;66129;45.890;13.714;2024-01-07T04:19:00;99238.16;;;7.55;100.00
77159;BME280;66129;45.890;13.714;2024-01-07T04:21:26;99241.53;;;7.51;100.00
77159;BME280;66129;45.890;13.714;2024-01-07T04:23:52;99246.66;;;7.54;100.00
77159;BME280;66129;45.890;13.714;2024-01-07T04:26:17;99251.75;;;7.54;100.00
77159;BME280;66129;45.890;13.714;2024-01-07T04:28:42;99256.03;;;7.53;100.00
77159;BME280;66129;45.890;13.714;2024-01-07T04:31:09;99245.78;;;7.52;100.00
77159;BME280;66129;45.890;13.714;2024-01-07T04:33:34;99243.25;;;7.49;100.00
77159;BME280;66129;45.890;13.714;2024-01-07T04:36:00;99248.38;;;7.55;100.00
77159;BME280;66129;45.890;13.714;2024-01-07T04:38:26;99239.84;;;7.53;100.00
77159;BME280;66129;45.890;13.714;2024-01-07T04:40:52;99250.06;;;7.56;100.00
77159;BME280;66129;45.890;13.714;2024-01-07T04:43:21;99248.34;;;7.52;100.00
77159;BME280;66129;45.890;13.714;2024-01-07T04:45:47;99245.81;;;7.55;100.00
77159;BME280;66129;45.890;13.714;2024-01-07T04:48:13;99247.50;;;7.51;100.00
77159;BME280;66129;45.890;13.714;2024-01-07T04:50:42;99255.28;;;7.69;100.00
77159;BME280;66129;45.890;13.714;2024-01-07T04:53:08;99259.56;;;7.73;100.00
77159;BME280;66129;45.890;13.714;2024-01-07T04:55:34;99251.91;;;7.76;100.00
77159;BME280;66129;45.890;13.714;2024-01-07T04:57:59;99249.38;;;7.80;100.00
77159;BME280;66129;45.890;13.714;2024-01-07T05:00:25;99251.09;;;7.78;100.00
77159;BME280;66129;45.890;13.714;2024-01-07T05:02:50;99258.72;;;7.75;100.00
77159;BME280;66129;45.890;13.714;2024-01-07T05:05:16;99268.13;;;7.79;100.00
77159;BME280;66129;45.890;13.714;2024-01-07T05:07:41;99265.53;;;7.76;100.00
77159;BME280;66129;45.890;13.714;2024-01-07T05:10:07;99263.81;;;7.72;100.00
77159;BME280;66129;45.890;13.714;2024-01-07T05:12:33;99264.59;;;7.67;100.00
77159;BME280;66129;45.890;13.714;2024-01-07T05:14:58;99270.53;;;7.66;100.00
77159;BME280;66129;45.890;13.714;2024-01-07T05:17:24;99281.59;;;7.65;100.00
77159;BME280;66129;45.890;13.714;2024-01-07T05:19:49;99265.44;;;7.62;100.00
77159;BME280;66129;45.890;13.714;2024-01-07T05:22:15;99254.38;;;7.63;100.00
77159;BME280;66129;45.890;13.714;2024-01-07T05:24:40;99261.97;;;7.57;100.00
77159;BME280;66129;45.890;13.714;2024-01-07T05:27:07;99274.69;;;7.54;100.00
77159;BME280;66129;45.890;13.714;2024-01-07T05:29:32;99264.47;;;7.48;100.00
77159;BME280;66129;45.890;13.714;2024-01-07T05:32:01;99286.59;;;7.49;100.00
77159;BME280;66129;45.890;13.714;2024-01-07T05:34:28;99282.31;;;7.51;100.00
77159;BME280;66129;45.890;13.714;2024-01-07T05:36:53;99276.38;;;7.50;100.00
77159;BME280;66129;45.890;13.714;2024-01-07T05:39:19;99273.84;;;7.49;100.00
77159;BME280;66129;45.890;13.714;2024-01-07T05:41:45;99279.78;;;7.51;100.00
77159;BME280;66129;45.890;13.714;2024-01-07T05:44:11;99283.16;;;7.48;100.00
77159;BME280;66129;45.890;13.714;2024-01-07T05:46:40;99267.88;;;7.50;100.00
77159;BME280;66129;45.890;13.714;2024-01-07T05:49:06;99277.25;;;7.52;100.00
77159;BME280;66129;45.890;13.714;2024-01-07T05:51:32;99281.50;;;7.55;100.00
77159;BME280;66129;45.890;13.714;2024-01-07T05:53:57;99281.56;;;7.61;100.00
77159;BME280;66129;45.890;13.714;2024-01-07T05:56:23;99279.81;;;7.54;100.00
77159;BME280;66129;45.890;13.714;2024-01-07T05:58:49;99287.44;;;7.54;100.00
77159;BME280;66129;45.890;13.714;2024-01-07T06:01:21;99284.06;;;7.55;100.00
77159;BME280;66129;45.890;13.714;2024-01-07T06:03:47;99291.72;;;7.58;100.00
77159;BME280;66129;45.890;13.714;2024-01-07T06:06:14;99278.16;;;7.59;100.00
77159;BME280;66129;45.890;13.714;2024-01-07T06:08:41;99290.03;;;7.55;100.00
77159;BME280;66129;45.890;13.714;2024-01-07T06:11:07;99294.25;;;7.55;100.00
77159;BME280;66129;45.890;13.714;2024-01-07T06:13:33;99295.09;;;7.52;100.00
77159;BME280;66129;45.890;13.714;2024-01-07T06:15:59;99298.47;;;7.50;100.00
77159;BME280;66129;45.890;13.714;2024-01-07T06:18:24;99295.97;;;7.56;100.00
77159;BME280;66129;45.890;13.714;2024-01-07T06:20:49;99299.34;;;7.55;100.00
77159;BME280;66129;45.890;13.714;2024-01-07T06:23:15;99308.66;;;7.48;100.00
77159;BME280;66129;45.890;13.714;2024-01-07T06:25:40;99305.25;;;7.45;100.00
77159;BME280;66129;45.890;13.714;2024-01-07T06:28:06;99312.06;;;7.50;100.00
77159;BME280;66129;45.890;13.714;2024-01-07T06:30:32;99312.91;;;7.48;100.00
77159;BME280;66129;45.890;13.714;2024-01-07T06:32:58;99306.09;;;7.44;100.00
77159;BME280;66129;45.890;13.714;2024-01-07T06:35:24;99311.16;;;7.41;100.00
77159;BME280;66129;45.890;13.714;2024-01-07T06:37:51;99315.38;;;7.40;100.00
77159;BME280;66129;45.890;13.714;2024-01-07T06:40:16;99312.88;;;7.42;100.00
77159;BME280;66129;45.890;13.714;2024-01-07T06:42:42;99318.03;;;7.48;100.00
77159;BME280;66129;45.890;13.714;2024-01-07T06:45:09;99323.16;;;7.52;100.00
77159;BME280;66129;45.890;13.714;2024-01-07T06:47:34;99324.09;;;7.63;100.00
77159;BME280;66129;45.890;13.714;2024-01-07T06:50:00;99313.94;;;7.68;100.00
77159;BME280;66129;45.890;13.714;2024-01-07T06:52:25;99314.88;;;7.83;100.00
77159;BME280;66129;45.890;13.714;2024-01-07T06:54:51;99316.72;;;8.05;100.00
77159;BME280;66129;45.890;13.714;2024-01-07T06:57:16;99327.06;;;8.21;100.00
77159;BME280;66129;45.890;13.714;2024-01-07T06:59:42;99316.94;;;8.35;100.00
77159;BME280;66129;45.890;13.714;2024-01-07T07:02:07;99327.13;;;8.32;100.00
77159;BME280;66129;45.890;13.714;2024-01-07T07:04:33;99332.94;;;8.14;100.00
77159;BME280;66129;45.890;13.714;2024-01-07T07:06:58;99335.47;;;8.05;100.00
77159;BME280;66129;45.890;13.714;2024-01-07T07:09:25;99323.41;;;7.86;100.00
77159;BME280;66129;45.890;13.714;2024-01-07T07:11:51;99319.13;;;7.82;100.00
77159;BME280;66129;45.890;13.714;2024-01-07T07:14:16;99318.22;;;7.74;100.00
77159;BME280;66129;45.890;13.714;2024-01-07T07:16:41;99313.94;;;7.70;100.00
77159;BME280;66129;45.890;13.714;2024-01-07T07:19:07;99326.69;;;7.70;100.00
77159;BME280;66129;45.890;13.714;2024-01-07T07:21:32;99336.03;;;7.70;100.00
77159;BME280;66129;45.890;13.714;2024-01-07T07:23:58;99332.66;;;7.72;100.00
77159;BME280;66129;45.890;13.714;2024-01-07T07:26:23;99323.38;;;7.83;100.00
77159;BME280;66129;45.890;13.714;2024-01-07T07:28:50;99322.53;;;7.84;100.00
77159;BME280;66129;45.890;13.714;2024-01-07T07:31:16;99326.78;;;7.82;100.00
77159;BME280;66129;45.890;13.714;2024-01-07T07:33:41;99324.28;;;7.88;100.00
77159;BME280;66129;45.890;13.714;2024-01-07T07:36:07;99327.75;;;7.99;100.00
77159;BME280;66129;45.890;13.714;2024-01-07T07:38:33;99329.50;;;8.03;100.00
77159;BME280;66129;45.890;13.714;2024-01-07T07:40:59;99345.69;;;8.11;100.00
77159;BME280;66129;45.890;13.714;2024-01-07T07:43:25;99333.78;;;8.12;100.00
77159;BME280;66129;45.890;13.714;2024-01-07T07:45:51;99329.47;;;8.00;100.00
77159;BME280;66129;45.890;13.714;2024-01-07T07:48:17;99337.13;;;8.05;100.00
77159;BME280;66129;45.890;13.714;2024-01-07T07:50:43;99334.56;;;8.02;100.00
77159;BME280;66129;45.890;13.714;2024-01-07T07:53:08;99330.25;;;7.89;100.00
77159;BME280;66129;45.890;13.714;2024-01-07T07:55:34;99340.44;;;7.90;100.00
77159;BME280;66129;45.890;13.714;2024-01-07T07:58:00;99327.63;;;7.84;100.00
77159;BME280;66129;45.890;13.714;2024-01-07T08:00:25;99342.22;;;8.00;100.00
77159;BME280;66129;45.890;13.714;2024-01-07T08:02:51;99334.56;;;7.97;100.00
77159;BME280;66129;45.890;13.714;2024-01-07T08:05:17;99345.66;;;8.02;100.00
77159;BME280;66129;45.890;13.714;2024-01-07T08:07:42;99340.50;;;8.01;100.00
77159;BME280;66129;45.890;13.714;2024-01-07T08:10:08;99341.34;;;8.00;100.00
77159;BME280;66129;45.890;13.714;2024-01-07T08:12:34;99346.44;;;7.95;100.00
77159;BME280;66129;45.890;13.714;2024-01-07T08:14:59;99352.34;;;7.91;100.00
77159;BME280;66129;45.890;13.714;2024-01-07T08:17:25;99358.38;;;8.01;100.00
77159;BME280;66129;45.890;13.714;2024-01-07T08:19:50;99361.84;;;8.07;100.00
77159;BME280;66129;45.890;13.714;2024-01-07T08:22:17;99359.44;;;8.30;100.00
77159;BME280;66129;45.890;13.714;2024-01-07T08:24:42;99362.91;;;8.33;100.00
77159;BME280;66129;45.890;13.714;2024-01-07T08:27:08;99376.53;;;8.41;100.00
77159;BME280;66129;45.890;13.714;2024-01-07T08:29:34;99364.59;;;8.40;100.00
77159;BME280;66129;45.890;13.714;2024-01-07T08:32:00;99368.06;;;8.48;100.00
77159;BME280;66129;45.890;13.714;2024-01-07T08:34:26;99361.28;;;8.50;100.00
77159;BME280;66129;45.890;13.714;2024-01-07T08:36:52;99368.09;;;8.51;100.00
77159;BME280;66129;45.890;13.714;2024-01-07T08:39:19;99355.31;;;8.48;100.00
77159;BME280;66129;45.890;13.714;2024-01-07T08:41:44;99368.97;;;8.52;100.00
77159;BME280;66129;45.890;13.714;2024-01-07T08:44:10;99375.78;;;8.53;100.00
77159;BME280;66129;45.890;13.714;2024-01-07T08:46:36;99376.63;;;8.56;100.00
77159;BME280;66129;45.890;13.714;2024-01-07T08:49:02;99374.09;;;8.61;100.00
77159;BME280;66129;45.890;13.714;2024-01-07T08:51:29;99389.47;;;8.68;100.00
77159;BME280;66129;45.890;13.714;2024-01-07T08:53:55;99400.66;;;8.91;100.00
77159;BME280;66129;45.890;13.714;2024-01-07T08:56:22;99398.97;;;9.05;100.00
77159;BME280;66129;45.890;13.714;2024-01-07T08:58:48;99396.41;;;8.97;100.00
77159;BME280;66129;45.890;13.714;2024-01-07T09:01:13;99403.25;;;9.09;100.00
77159;BME280;66129;45.890;13.714;2024-01-07T09:03:40;99400.75;;;9.13;100.00
77159;BME280;66129;45.890;13.714;2024-01-07T09:06:06;99405.91;;;9.27;100.00
77159;BME280;66129;45.890;13.714;2024-01-07T09:08:33;99407.59;;;9.28;100.00
77159;BME280;66129;45.890;13.714;2024-01-07T09:10:59;99400.78;;;9.27;100.00
77159;BME280;66129;45.890;13.714;2024-01-07T09:13:27;99409.34;;;9.50;100.00
77159;BME280;66129;45.890;13.714;2024-01-07T09:15:52;99411.06;;;9.51;100.00
77159;BME280;66129;45.890;13.714;2024-01-07T09:18:18;99411.94;;;9.60;97.47
77159;BME280;66129;45.890;13.714;2024-01-07T09:20:44;99430.72;;;9.74;100.00
77159;BME280;66129;45.890;13.714;2024-01-07T09:23:09;99424.72;;;9.68;100.00
77159;BME280;66129;45.890;13.714;2024-01-07T09:25:35;99434.13;;;9.72;100.00
77159;BME280;66129;45.890;13.714;2024-01-07T09:28:00;99422.16;;;9.78;99.29
77159;BME280;66129;45.890;13.714;2024-01-07T09:30:27;99425.63;;;9.88;99.30
77159;BME280;66129;45.890;13.714;2024-01-07T09:32:52;99428.19;;;9.88;94.82
77159;BME280;66129;45.890;13.714;2024-01-07T09:35:18;99449.50;;;9.98;98.39
77159;BME280;66129;45.890;13.714;2024-01-07T09:37:44;99448.69;;;10.02;85.17
77159;BME280;66129;45.890;13.714;2024-01-07T09:40:10;99446.97;;;10.21;80.61
77159;BME280;66129;45.890;13.714;2024-01-07T09:42:36;99464.03;;;10.46;78.92
77159;BME280;66129;45.890;13.714;2024-01-07T09:45:02;99441.00;;;10.35;84.01
77159;BME280;66129;45.890;13.714;2024-01-07T09:47:29;99449.53;;;10.42;74.21
77159;BME280;66129;45.890;13.714;2024-01-07T09:49:55;99457.22;;;10.43;80.87
77159;BME280;66129;45.890;13.714;2024-01-07T09:52:20;99439.28;;;10.31;75.29
77159;BME280;66129;45.890;13.714;2024-01-07T09:54:52;99441.84;;;10.34;81.90
77159;BME280;66129;45.890;13.714;2024-01-07T09:57:21;99463.19;;;10.35;78.18
77159;BME280;66129;45.890;13.714;2024-01-07T09:59:47;99464.06;;;10.34;81.32
77159;BME280;66129;45.890;13.714;2024-01-07T10:02:12;99465.75;;;10.30;81.92
77159;BME280;66129;45.890;13.714;2024-01-07T10:04:39;99465.75;;;10.39;71.16
77159;BME280;66129;45.890;13.714;2024-01-07T10:07:05;99470.03;;;10.48;74.18
77159;BME280;66129;45.890;13.714;2024-01-07T10:09:33;99453.81;;;10.44;72.87
77159;BME280;66129;45.890;13.714;2024-01-07T10:11:59;99462.34;;;10.49;75.92
77159;BME280;66129;45.890;13.714;2024-01-07T10:14:27;99464.03;;;10.46;73.80
77159;BME280;66129;45.890;13.714;2024-01-07T10:16:53;99471.72;;;10.50;72.74
77159;BME280;66129;45.890;13.714;2024-01-07T10:19:22;99467.47;;;10.49;75.01
77159;BME280;66129;45.890;13.714;2024-01-07T10:22:02;99470.88;;;10.48;75.74
77159;BME280;66129;45.890;13.714;2024-01-07T10:24:39;99474.28;;;10.46;76.99
77159;BME280;66129;45.890;13.714;2024-01-07T10:27:05;99464.91;;;10.43;75.13
77159;BME280;66129;45.890;13.714;2024-01-07T10:29:32;99471.72;;;10.46;75.00
77159;BME280;66129;45.890;13.714;2024-01-07T10:32:01;99487.94;;;10.52;74.05
77159;BME280;66129;45.890;13.714;2024-01-07T10:34:31;99483.66;;;10.57;73.08
77159;BME280;66129;45.890;13.714;2024-01-07T10:36:59;99481.09;;;10.54;74.12
77159;BME280;66129;45.890;13.714;2024-01-07T10:39:24;99493.06;;;10.58;73.63
77159;BME280;66129;45.890;13.714;2024-01-07T10:41:51;99493.94;;;10.56;73.82
77159;BME280;66129;45.890;13.714;2024-01-07T10:44:19;99491.34;;;10.57;68.71
77159;BME280;66129;45.890;13.714;2024-01-07T10:46:46;99499.06;;;10.62;70.76
77159;BME280;66129;45.890;13.714;2024-01-07T10:49:21;99489.66;;;10.59;70.95
77159;BME280;66129;45.890;13.714;2024-01-07T10:52:07;99502.47;;;10.65;70.09
77159;BME280;66129;45.890;13.714;2024-01-07T10:54:34;99492.22;;;10.62;72.84
77159;BME280;66129;45.890;13.714;2024-01-07T10:57:13;99507.59;;;10.58;77.49
77159;BME280;66129;45.890;13.714;2024-01-07T10:59:45;99494.78;;;10.61;72.71
77159;BME280;66129;45.890;13.714;2024-01-07T11:02:11;99501.59;;;10.57;74.96
77159;BME280;66129;45.890;13.714;2024-01-07T11:05:05;99494.78;;;10.65;71.04
77159;BME280;66129;45.890;13.714;2024-01-07T11:07:46;99489.66;;;10.59;75.94
77159;BME280;66129;45.890;13.714;2024-01-07T11:10:20;99498.19;;;10.55;74.17
77159;BME280;66129;45.890;13.714;2024-01-07T11:12:57;99486.25;;;10.48;77.07
77159;BME280;66129;45.890;13.714;2024-01-07T11:18:17;99481.13;;;10.45;74.67
77159;BME280;66129;45.890;13.714;2024-01-07T11:20:44;99499.06;;;10.41;80.88
77159;BME280;66129;45.890;13.714;2024-01-07T11:23:28;99475.16;;;10.31;80.22
77159;BME280;66129;45.890;13.714;2024-01-07T11:25:56;99487.13;;;10.31;80.96
77159;BME280;66129;45.890;13.714;2024-01-07T11:28:45;99503.34;;;10.43;76.37
77159;BME280;66129;45.890;13.714;2024-01-07T11:31:11;99475.16;;;10.27;76.58
77159;BME280;66129;45.890;13.714;2024-01-07T11:33:37;99487.13;;;10.31;75.93
77159;BME280;66129;45.890;13.714;2024-01-07T11:36:04;99482.00;;;10.25;75.95
77159;BME280;66129;45.890;13.714;2024-01-07T11:38:30;99487.97;;;10.24;78.45
77159;BME280;66129;45.890;13.714;2024-01-07T11:40:56;99475.16;;;10.19;79.56
77159;BME280;66129;45.890;13.714;2024-01-07T11:43:22;99486.25;;;10.15;77.83
77159;BME280;66129;45.890;13.714;2024-01-07T11:45:51;99472.59;;;10.13;77.05
77159;BME280;66129;45.890;13.714;2024-01-07T11:48:18;99484.53;;;10.14;77.60
77159;BME280;66129;45.890;13.714;2024-01-07T11:50:44;99476.84;;;10.13;77.73
77159;BME280;66129;45.890;13.714;2024-01-07T11:53:11;99476.00;;;10.15;76.54
77159;BME280;66129;45.890;13.714;2024-01-07T11:55:38;99470.88;;;10.06;79.68
77159;BME280;66129;45.890;13.714;2024-01-07T11:58:03;99498.19;;;10.07;79.48
77159;BME280;66129;45.890;13.714;2024-01-07T12:00:33;99479.41;;;10.01;79.64
77159;BME280;66129;45.890;13.714;2024-01-07T12:03:02;99488.81;;;10.06;78.44
77159;BME280;66129;45.890;13.714;2024-01-07T12:05:28;99465.69;;;9.91;78.75
77159;BME280;66129;45.890;13.714;2024-01-07T12:07:55;99496.47;;;10.11;77.29
77159;BME280;66129;45.890;13.714;2024-01-07T12:10:21;99494.78;;;10.08;75.97
77159;BME280;66129;45.890;13.714;2024-01-07T12:12:47;99486.19;;;9.89;76.49
77159;BME280;66129;45.890;13.714;2024-01-07T12:15:13;99491.28;;;9.87;75.01
77159;BME280;66129;45.890;13.714;2024-01-07T12:17:39;99493.84;;;9.90;74.22
77159;BME280;66129;45.890;13.714;2024-01-07T12:20:05;99490.44;;;9.84;75.17
77159;BME280;66129;45.890;13.714;2024-01-07T12:22:32;99494.69;;;9.80;76.83
77159;BME280;66129;45.890;13.714;2024-01-07T12:25:07;99485.31;;;9.85;78.95
77159;BME280;66129;45.890;13.714;2024-01-07T12:27:34;99490.44;;;9.84;80.12
77159;BME280;66129;45.890;13.714;2024-01-07T12:30:01;99491.25;;;9.74;81.54
77159;BME280;66129;45.890;13.714;2024-01-07T12:32:30;99482.72;;;9.66;79.11
77159;BME280;66129;45.890;13.714;2024-01-07T12:34:59;99487.00;;;9.68;78.45
77159;BME280;66129;45.890;13.714;2024-01-07T12:37:28;99479.38;;;9.88;78.13
77159;BME280;66129;45.890;13.714;2024-01-07T12:39:57;99481.06;;;9.89;77.45
77159;BME280;66129;45.890;13.714;2024-01-07T12:42:22;99489.59;;;9.85;76.02
77159;BME280;66129;45.890;13.714;2024-01-07T12:44:49;99491.25;;;9.74;75.48
77159;BME280;66129;45.890;13.714;2024-01-07T12:47:15;99491.28;;;9.94;73.49
77159;BME280;66129;45.890;13.714;2024-01-07T12:49:41;99482.81;;;10.00;72.21
77159;BME280;66129;45.890;13.714;2024-01-07T12:52:06;99492.13;;;9.83;75.97